Time;durP1;ratioP1;P1;durP2;ratioP2;P2;SDS_P1;SDS_P2;PMS_P1;PMS_P2;Temp;Humidity;BMP_temperature;BMP_pressure;BME280_temperature;BME280_humidity;BME280_pressure;Samples;Min_cycle;Max_cycle;Signal;HPM_P1;HPM_P2
2022/04/09 00:00:09;;;;;;;9.73;2.60;;;7.20;70.10;;;;;;2575761;54;21616;-82
2022/04/09 00:02:36;;;;;;;7.55;2.53;;;7.20;70.10;;;;;;2332412;57;21072;-81
2022/04/09 00:05:05;;;;;;;6.90;2.55;;;7.20;70.20;;;;;;2575760;54;21078;-82
2022/04/09 00:07:32;;;;;;;5.47;2.53;;;7.20;70.40;;;;;;2575574;54;21049;-82
2022/04/09 00:10:00;;;;;;;7.20;2.85;;;7.10;70.60;;;;;;2575654;54;21541;-82
2022/04/09 00:12:27;;;;;;;9.70;2.80;;;7.00;71.00;;;;;;2575971;54;21053;-82
2022/04/09 00:14:54;;;;;;;6.47;2.10;;;7.00;71.00;;;;;;2332042;57;21064;-82
2022/04/09 00:17:21;;;;;;;7.90;2.90;;;7.00;70.90;;;;;;2332112;57;21046;-82
2022/04/09 00:19:48;;;;;;;8.00;2.95;;;7.00;71.80;;;;;;2332566;57;21144;-83
2022/04/09 00:22:16;;;;;;;5.30;2.35;;;7.00;71.00;;;;;;2332110;57;21121;-82
2022/04/09 00:24:43;;;;;;;11.85;3.40;;;6.90;71.10;;;;;;2575500;54;21041;-81
2022/04/09 00:27:10;;;;;;;6.05;2.62;;;6.90;71.30;;;;;;2576072;54;21142;-82
2022/04/09 00:29:37;;;;;;;13.10;2.97;;;6.90;71.20;;;;;;2575768;54;21069;-82
2022/04/09 00:32:07;;;;;;;16.08;2.80;;;6.90;71.30;;;;;;2575810;54;21072;-81
2022/04/09 00:34:35;;;;;;;8.93;2.75;;;6.90;71.20;;;;;;2332252;57;21135;-80
2022/04/09 00:37:02;;;;;;;7.50;2.40;;;6.90;71.30;;;;;;2575840;54;21105;-82
2022/04/09 00:39:29;;;;;;;9.00;2.90;;;6.80;71.40;;;;;;2332258;57;21133;-82
2022/04/09 00:41:56;;;;;;;11.43;2.35;;;6.80;71.70;;;;;;2575554;54;21077;-82
2022/04/09 00:44:23;;;;;;;11.63;2.87;;;6.80;71.50;;;;;;2575854;54;21073;-82
2022/04/09 00:46:52;;;;;;;8.07;2.50;;;6.80;71.60;;;;;;2331944;57;21057;-82
2022/04/09 00:49:20;;;;;;;9.88;2.70;;;6.80;71.60;;;;;;2575602;54;21069;-82
2022/04/09 00:51:51;;;;;;;4.57;2.30;;;6.80;71.40;;;;;;2332535;57;21120;-82
2022/04/09 00:54:22;;;;;;;8.82;2.67;;;6.80;71.20;;;;;;2331963;57;21636;-82
2022/04/09 00:56:51;;;;;;;9.07;2.75;;;6.70;71.30;;;;;;2332089;57;21065;-82
2022/04/09 00:59:23;;;;;;;8.15;2.47;;;6.70;71.60;;;;;;2575617;54;21069;-82
2022/04/09 01:04:28;;;;;;;5.07;2.12;;;6.70;71.60;;;;;;2535733;54;22174;-72
2022/04/09 01:06:56;;;;;;;7.97;2.80;;;6.70;71.70;;;;;;2313215;58;21060;-74
2022/04/09 01:09:23;;;;;;;9.55;2.60;;;6.70;71.70;;;;;;2317811;58;21076;-74
2022/04/09 01:11:52;;;;;;;11.77;2.83;;;6.60;71.60;;;;;;2317571;58;21108;-74
2022/04/09 01:14:19;;;;;;;8.05;2.70;;;6.60;71.70;;;;;;2318175;58;21080;-74
2022/04/09 01:16:47;;;;;;;8.18;2.42;;;6.60;71.40;;;;;;2557800;54;21056;-75
2022/04/09 01:19:14;;;;;;;8.60;2.47;;;6.60;71.40;;;;;;2316300;58;21438;-74
2022/04/09 01:21:42;;;;;;;8.73;2.30;;;6.60;71.40;;;;;;2557521;54;21061;-74
2022/04/09 01:24:09;;;;;;;11.18;3.28;;;6.60;71.80;;;;;;2558684;54;21118;-74
2022/04/09 01:26:37;;;;;;;9.82;2.58;;;6.60;71.60;;;;;;2557977;54;21140;-74
2022/04/09 01:29:05;;;;;;;5.05;2.53;;;6.60;71.30;;;;;;2317249;58;21053;-75
2022/04/09 01:31:33;;;;;;;5.22;2.53;;;6.60;71.40;;;;;;2317752;58;21119;-74
2022/04/09 01:34:00;;;;;;;7.82;2.50;;;6.60;71.40;;;;;;2317694;58;21225;-74
2022/04/09 01:36:27;;;;;;;7.80;2.30;;;6.60;72.40;;;;;;2315530;58;21175;-74
2022/04/09 01:38:54;;;;;;;9.43;2.87;;;6.60;71.90;;;;;;2317536;58;21136;-74
2022/04/09 01:41:21;;;;;;;6.72;2.65;;;6.70;71.70;;;;;;2317688;58;21060;-74
2022/04/09 01:43:49;;;;;;;6.50;2.95;;;6.70;71.80;;;;;;2557955;54;21056;-74
2022/04/09 01:46:16;;;;;;;10.40;3.65;;;6.60;72.10;;;;;;2317445;58;21068;-75
2022/04/09 01:48:43;;;;;;;10.48;2.90;;;6.60;72.00;;;;;;2317229;58;21112;-75
2022/04/09 01:51:10;;;;;;;12.55;3.15;;;6.60;71.90;;;;;;2317907;58;21076;-74
2022/04/09 01:53:38;;;;;;;4.50;2.20;;;6.60;71.80;;;;;;2316510;58;21044;-74
2022/04/09 01:56:06;;;;;;;6.07;2.37;;;6.60;71.40;;;;;;2316439;58;21431;-74
2022/04/09 01:58:34;;;;;;;8.93;2.72;;;6.60;71.30;;;;;;2317722;58;21056;-75
2022/04/09 02:03:48;;;;;;;11.45;2.42;;;6.60;71.10;;;;;;2562558;54;21032;-73
2022/04/09 02:06:15;;;;;;;5.97;2.10;;;6.50;71.00;;;;;;2319595;58;21122;-73
2022/04/09 02:08:42;;;;;;;5.85;2.40;;;6.50;71.00;;;;;;2319014;58;21068;-73
2022/04/09 02:13:46;;;;;;;6.32;1.87;;;6.50;70.90;;;;;;2354660;57;22808;-73
2022/04/09 02:16:14;;;;;;;3.30;2.15;;;6.50;71.10;;;;;;2360679;56;21114;-73
2022/04/09 02:21:17;;;;;;;6.40;2.30;;;6.50;70.80;;;;;;2354624;57;22501;-73
2022/04/09 02:23:45;;;;;;;6.85;2.40;;;6.50;70.70;;;;;;2345846;57;21069;-73
2022/04/09 02:26:13;;;;;;;7.57;3.58;;;6.40;70.70;;;;;;2360800;56;21124;-73
2022/04/09 02:28:41;;;;;;;7.07;1.95;;;6.40;70.60;;;;;;2374093;56;21114;-73
2022/04/09 02:31:08;;;;;;;8.75;3.28;;;6.40;70.60;;;;;;2373515;56;21248;-73
2022/04/09 02:33:36;;;;;;;5.37;2.40;;;6.40;70.60;;;;;;2372959;56;21083;-73
2022/04/09 02:36:03;;;;;;;7.55;2.83;;;6.40;71.60;;;;;;2373235;56;21051;-73
2022/04/09 02:38:30;;;;;;;4.68;2.33;;;6.30;70.60;;;;;;2373509;56;21102;-73
2022/04/09 02:40:59;;;;;;;8.82;3.20;;;6.30;70.70;;;;;;2373383;56;21190;-73
2022/04/09 02:43:26;;;;;;;7.15;2.40;;;6.30;70.90;;;;;;2373699;56;21122;-73
2022/04/09 02:45:54;;;;;;;8.00;2.60;;;6.30;70.60;;;;;;2373516;56;21044;-73
2022/04/09 02:48:23;;;;;;;6.75;2.35;;;6.30;70.40;;;;;;2373070;56;21055;-73
2022/04/09 02:50:50;;;;;;;5.37;2.25;;;6.30;70.60;;;;;;2373163;56;21043;-74
2022/04/09 02:53:17;;;;;;;6.53;2.20;;;6.20;70.50;;;;;;2373275;56;21098;-74
2022/04/09 02:55:44;;;;;;;6.40;2.50;;;6.20;70.70;;;;;;2373282;56;21051;-74
2022/04/09 02:58:12;;;;;;;9.98;3.08;;;6.20;70.90;;;;;;2373488;56;21439;-74
2022/04/09 03:00:39;;;;;;;6.78;2.05;;;6.20;71.00;;;;;;2373889;56;21818;-74
2022/04/09 03:03:07;;;;;;;7.00;2.40;;;6.20;70.90;;;;;;2373510;56;21376;-74
2022/04/09 03:05:35;;;;;;;13.75;3.37;;;6.20;70.90;;;;;;2373483;56;21725;-74
2022/04/09 03:08:02;;;;;;;10.77;2.40;;;6.20;70.80;;;;;;2372708;56;21043;-74
2022/04/09 03:10:29;;;;;;;5.00;2.10;;;6.20;70.90;;;;;;2373635;56;21138;-74
2022/04/09 03:12:58;;;;;;;8.20;2.28;;;6.10;70.60;;;;;;2626804;52;21073;-74
2022/04/09 03:15:26;;;;;;;5.10;2.20;;;6.10;70.80;;;;;;2372654;56;21116;-74
2022/04/09 03:17:53;;;;;;;5.22;2.22;;;6.10;70.70;;;;;;2373843;56;21233;-75
2022/04/09 03:20:21;;;;;;;11.15;2.85;;;6.10;70.80;;;;;;2373586;56;21123;-74
2022/04/09 03:22:49;;;;;;;8.27;2.90;;;6.10;71.10;;;;;;2373368;56;21424;-74
2022/04/09 03:27:53;;;;;;;8.00;3.00;;;6.10;71.40;;;;;;2354884;57;22074;-73
2022/04/09 03:30:20;;;;;;;6.85;2.72;;;6.00;71.30;;;;;;2345954;57;21596;-73
2022/04/09 03:32:47;;;;;;;11.77;2.70;;;6.00;71.40;;;;;;2334394;57;21132;-73
2022/04/09 03:35:15;;;;;;;8.00;2.67;;;6.00;71.40;;;;;;2349405;56;21066;-73
2022/04/09 03:37:42;;;;;;;10.35;2.90;;;6.00;71.10;;;;;;2372747;56;21055;-74
2022/04/09 03:40:12;;;;;;;9.15;2.90;;;6.00;71.10;;;;;;2373707;56;21114;-73
2022/04/09 03:42:39;;;;;;;11.68;3.35;;;6.00;71.00;;;;;;2373751;56;21061;-73
2022/04/09 03:45:08;;;;;;;4.70;2.42;;;6.00;70.90;;;;;;2373522;56;21035;-73
2022/04/09 03:47:36;;;;;;;7.30;2.70;;;6.00;71.00;;;;;;2373213;56;21042;-73
2022/04/09 03:50:05;;;;;;;9.73;2.67;;;6.00;70.90;;;;;;2374058;56;21058;-73
2022/04/09 03:52:32;;;;;;;9.25;3.35;;;6.00;70.70;;;;;;2373701;56;21047;-74
2022/04/09 03:55:00;;;;;;;5.18;3.12;;;6.00;70.70;;;;;;2625268;52;21055;-74
2022/04/09 03:57:27;;;;;;;7.68;2.47;;;6.00;71.80;;;;;;2373984;56;21122;-74
2022/04/09 03:59:57;;;;;;;8.50;3.05;;;6.00;71.00;;;;;;2372820;56;21051;-74
2022/04/09 04:02:24;;;;;;;9.10;2.87;;;6.00;70.90;;;;;;2373469;56;21282;-75
2022/04/09 04:04:51;;;;;;;22.90;4.10;;;6.00;70.40;;;;;;2373847;56;21126;-74
2022/04/09 04:07:22;;;;;;;9.73;3.72;;;5.90;70.50;;;;;;2373181;56;21043;-73
2022/04/09 04:09:49;;;;;;;14.68;2.87;;;6.00;70.60;;;;;;2372626;56;21066;-74
2022/04/09 04:12:17;;;;;;;9.35;2.72;;;6.00;70.50;;;;;;2373431;56;21463;-74
2022/04/09 04:14:44;;;;;;;4.62;2.35;;;5.90;70.20;;;;;;2372656;56;21614;-74
2022/04/09 04:17:12;;;;;;;9.82;2.87;;;6.00;70.30;;;;;;2372697;56;21095;-74
2022/04/09 04:19:39;;;;;;;7.30;2.67;;;5.90;70.50;;;;;;2373825;56;21502;-74
2022/04/09 04:22:08;;;;;;;7.93;2.80;;;5.90;71.10;;;;;;2373571;56;21111;-74
2022/04/09 04:24:37;;;;;;;9.50;2.78;;;5.90;70.30;;;;;;2373814;56;21078;-75
2022/04/09 04:27:05;;;;;;;11.07;3.15;;;5.90;70.20;;;;;;2372487;56;21078;-74
2022/04/09 04:29:33;;;;;;;5.87;2.45;;;5.80;70.50;;;;;;2372992;56;21043;-74
2022/04/09 04:32:00;;;;;;;5.90;2.60;;;5.80;70.80;;;;;;2373189;56;21063;-74
2022/04/09 04:34:28;;;;;;;10.93;3.22;;;5.80;70.90;;;;;;2373426;56;21051;-74
2022/04/09 04:36:55;;;;;;;5.45;2.58;;;5.80;71.10;;;;;;2372951;56;21703;-73
2022/04/09 04:39:22;;;;;;;4.90;2.62;;;5.80;72.10;;;;;;2372391;56;21077;-74
2022/04/09 04:41:49;;;;;;;8.55;2.80;;;5.70;70.80;;;;;;2372019;56;21134;-75
2022/04/09 04:44:17;;;;;;;15.52;3.33;;;5.80;70.70;;;;;;2372558;56;21431;-73
2022/04/09 04:46:44;;;;;;;5.95;2.50;;;5.80;70.80;;;;;;2371183;56;22173;-74
2022/04/09 04:49:12;;;;;;;7.82;2.72;;;5.80;70.60;;;;;;2372161;56;21093;-73
2022/04/09 04:51:39;;;;;;;10.88;3.20;;;5.80;70.50;;;;;;2372798;56;21054;-73
2022/04/09 04:54:06;;;;;;;13.38;3.05;;;5.70;70.80;;;;;;2371958;56;21054;-74
2022/04/09 04:56:33;;;;;;;6.78;2.50;;;5.70;70.80;;;;;;2372307;56;21122;-73
2022/04/09 04:59:01;;;;;;;11.15;2.92;;;5.70;71.10;;;;;;2371605;56;21173;-73
2022/04/09 05:01:28;;;;;;;5.45;2.80;;;5.70;71.10;;;;;;2371897;56;21051;-73
2022/04/09 05:03:55;;;;;;;12.55;3.17;;;5.70;71.40;;;;;;2371636;56;21053;-73
2022/04/09 05:06:23;;;;;;;23.85;3.30;;;5.70;71.20;;;;;;2624092;52;21043;-74
2022/04/09 05:08:50;;;;;;;5.87;2.70;;;5.80;71.40;;;;;;2371980;56;21847;-74
2022/04/09 05:11:17;;;;;;;6.85;2.62;;;5.80;71.30;;;;;;2372415;56;21139;-74
2022/04/09 05:13:44;;;;;;;9.98;2.80;;;5.70;71.20;;;;;;2372362;56;21605;-74
2022/04/09 05:16:11;;;;;;;9.50;3.30;;;5.80;71.00;;;;;;2371800;56;21106;-73
2022/04/09 05:18:39;;;;;;;9.70;2.60;;;5.80;71.10;;;;;;2372529;56;21083;-73
2022/04/09 05:21:06;;;;;;;7.87;2.97;;;5.80;71.00;;;;;;2371783;56;21067;-73
2022/04/09 05:23:33;;;;;;;4.65;2.37;;;5.80;70.90;;;;;;2371623;56;21189;-73
2022/04/09 05:26:01;;;;;;;8.15;3.45;;;5.90;71.00;;;;;;2371023;56;21050;-76
2022/04/09 05:28:28;;;;;;;14.55;3.67;;;5.90;71.10;;;;;;2625959;52;21063;-76
2022/04/09 05:30:55;;;;;;;9.60;3.42;;;5.90;71.40;;;;;;2372033;56;21609;-74
2022/04/09 05:33:22;;;;;;;18.33;3.17;;;5.90;71.70;;;;;;2625870;52;21616;-74
2022/04/09 05:38:25;;;;;;;12.20;3.78;;;5.90;71.80;;;;;;2334669;57;27793;-73
2022/04/09 05:40:52;;;;;;;12.43;3.45;;;5.70;74.80;;;;;;2345500;57;21052;-74
2022/04/09 05:43:19;;;;;;;16.35;4.25;;;5.80;74.00;;;;;;2344677;57;21113;-71
2022/04/09 05:45:46;;;;;;;11.48;2.87;;;5.90;73.30;;;;;;2355202;56;21118;-74
2022/04/09 05:48:14;;;;;;;13.48;3.22;;;5.90;72.70;;;;;;2373770;56;21126;-71
2022/04/09 05:50:41;;;;;;;8.40;2.90;;;5.90;72.70;;;;;;2373713;56;21371;-75
2022/04/09 05:53:08;;;;;;;8.63;3.75;;;6.00;72.30;;;;;;2373571;56;21123;-74
2022/04/09 05:55:35;;;;;;;8.00;2.25;;;6.10;72.00;;;;;;2372662;56;21066;-72
2022/04/09 05:58:03;;;;;;;16.85;3.60;;;6.10;72.30;;;;;;2374082;56;21067;-72
2022/04/09 06:00:31;;;;;;;10.50;3.30;;;6.10;72.40;;;;;;2371842;56;21653;-72
2022/04/09 06:02:58;;;;;;;8.57;2.90;;;6.20;72.40;;;;;;2372475;56;21059;-72
2022/04/09 06:05:26;;;;;;;17.92;3.87;;;6.30;72.20;;;;;;2372670;56;21122;-72
2022/04/09 06:07:53;;;;;;;14.93;3.65;;;6.30;72.30;;;;;;2373252;56;21055;-73
2022/04/09 06:10:21;;;;;;;12.88;3.17;;;6.30;72.50;;;;;;2373515;56;21055;-72
2022/04/09 06:12:48;;;;;;;12.73;3.65;;;6.30;72.80;;;;;;2373346;56;21059;-72
2022/04/09 06:15:15;;;;;;;5.70;2.80;;;6.30;73.20;;;;;;2373303;56;21059;-72
2022/04/09 06:17:42;;;;;;;11.70;3.35;;;6.40;73.10;;;;;;2373142;56;21121;-72
2022/04/09 06:20:10;;;;;;;12.18;2.92;;;6.40;72.90;;;;;;2373877;56;21098;-72
2022/04/09 06:22:37;;;;;;;9.70;3.25;;;6.40;72.80;;;;;;2373297;56;21058;-71
2022/04/09 06:25:06;;;;;;;9.07;3.03;;;6.50;73.00;;;;;;2372898;56;21131;-73
2022/04/09 06:27:37;;;;;;;6.90;2.60;;;6.50;73.10;;;;;;2373381;56;21051;-73
2022/04/09 06:30:05;;;;;;;5.53;2.80;;;6.60;73.50;;;;;;2372779;56;21058;-72
2022/04/09 06:32:32;;;;;;;12.65;3.42;;;6.60;73.20;;;;;;2373208;56;21058;-71
2022/04/09 06:35:00;;;;;;;9.85;3.10;;;6.60;73.20;;;;;;2625980;52;21055;-73
2022/04/09 06:37:27;;;;;;;7.60;3.17;;;6.70;72.70;;;;;;2372989;56;21038;-73
2022/04/09 06:39:55;;;;;;;11.57;3.58;;;6.70;72.60;;;;;;2373099;56;21617;-72
2022/04/09 06:42:23;;;;;;;9.25;3.08;;;6.70;72.80;;;;;;2373085;56;21035;-73
2022/04/09 06:44:50;;;;;;;12.27;3.12;;;6.70;72.90;;;;;;2373188;56;21113;-73
2022/04/09 06:47:17;;;;;;;9.95;3.10;;;6.70;73.20;;;;;;2372029;56;21052;-74
2022/04/09 06:49:44;;;;;;;9.15;3.30;;;6.80;72.90;;;;;;2372158;56;21447;-73
2022/04/09 06:52:12;;;;;;;11.10;3.70;;;6.80;73.40;;;;;;2372147;56;21038;-72
2022/04/09 06:54:39;;;;;;;10.90;3.53;;;6.80;73.40;;;;;;2371962;56;21109;-74
2022/04/09 06:57:06;;;;;;;8.93;2.72;;;6.80;73.00;;;;;;2370880;56;21114;-74
2022/04/09 06:59:34;;;;;;;11.98;3.40;;;6.90;73.30;;;;;;2372141;56;21133;-73
2022/04/09 07:02:01;;;;;;;10.75;3.22;;;7.00;73.40;;;;;;2371131;56;21054;-73
2022/04/09 07:04:28;;;;;;;10.10;3.55;;;7.00;73.20;;;;;;2371820;56;21158;-72
2022/04/09 07:06:56;;;;;;;8.13;2.87;;;7.10;73.10;;;;;;2369209;56;21046;-74
2022/04/09 07:09:24;;;;;;;14.32;4.30;;;7.10;73.00;;;;;;2372657;56;21122;-73
2022/04/09 07:11:51;;;;;;;8.60;4.32;;;7.20;73.70;;;;;;2371043;56;21137;-71
2022/04/09 07:14:18;;;;;;;10.63;3.35;;;7.20;72.40;;;;;;2370956;56;21320;-72
2022/04/09 07:16:46;;;;;;;11.40;3.30;;;7.30;72.70;;;;;;2369561;56;21539;-74
2022/04/09 07:19:13;;;;;;;8.02;3.25;;;7.30;72.30;;;;;;2372184;56;21089;-73
2022/04/09 07:21:41;;;;;;;8.98;2.97;;;7.30;72.00;;;;;;2372616;56;21070;-74
2022/04/09 07:24:09;;;;;;;11.35;3.30;;;7.40;71.50;;;;;;2372648;56;21083;-73
2022/04/09 07:26:36;;;;;;;11.75;3.78;;;7.40;72.10;;;;;;2372024;56;21066;-74
2022/04/09 07:29:03;;;;;;;12.90;3.35;;;7.40;72.10;;;;;;2372927;56;21058;-72
2022/04/09 07:31:30;;;;;;;7.68;3.05;;;7.30;72.60;;;;;;2373657;56;21067;-75
2022/04/09 07:33:57;;;;;;;11.88;3.60;;;7.30;73.00;;;;;;2370806;56;21606;-74
2022/04/09 07:36:25;;;;;;;6.35;3.58;;;7.20;73.50;;;;;;2372842;56;21075;-73
2022/04/09 07:38:52;;;;;;;8.23;2.70;;;7.10;73.20;;;;;;2372233;56;21553;-75
2022/04/09 07:41:20;;;;;;;4.05;1.92;;;7.10;72.50;;;;;;2373285;56;21133;-71
2022/04/09 07:43:47;;;;;;;3.83;2.10;;;7.00;72.30;;;;;;2625973;52;21529;-73
2022/04/09 07:46:14;;;;;;;2.95;1.80;;;6.90;72.00;;;;;;2372696;56;21110;-73
2022/04/09 07:48:41;;;;;;;3.37;1.67;;;6.90;71.80;;;;;;2373357;56;21095;-72
2022/04/09 07:51:09;;;;;;;3.62;1.80;;;6.80;71.90;;;;;;2372332;56;21051;-73
2022/04/09 07:53:36;;;;;;;5.97;2.08;;;6.80;71.90;;;;;;2372921;56;21624;-74
2022/04/09 07:56:03;;;;;;;4.47;1.90;;;6.80;72.10;;;;;;2372902;56;21043;-73
2022/04/09 08:01:07;;;;;;;6.57;2.58;;;6.90;72.20;;;;;;2328392;57;22103;-72
2022/04/09 08:03:34;;;;;;;9.07;2.75;;;6.90;72.40;;;;;;2280792;56;21031;-74
2022/04/09 08:06:01;;;;;;;6.90;2.62;;;6.90;72.30;;;;;;2266566;59;21125;-73
2022/04/09 08:08:29;;;;;;;9.18;3.55;;;6.90;72.50;;;;;;2267298;59;21038;-73
2022/04/09 08:10:56;;;;;;;8.15;2.75;;;7.00;73.00;;;;;;2267665;59;21684;-74
2022/04/09 08:13:23;;;;;;;8.43;3.58;;;7.00;72.50;;;;;;2267331;59;21395;-73
2022/04/09 08:15:51;;;;;;;9.75;3.17;;;7.10;73.00;;;;;;2266778;59;21054;-73
2022/04/09 08:18:18;;;;;;;6.93;2.87;;;7.10;73.70;;;;;;2267403;59;21046;-73
2022/04/09 08:20:45;;;;;;;6.18;2.70;;;7.10;73.50;;;;;;2357388;54;21030;-73
2022/04/09 08:23:12;;;;;;;4.32;2.78;;;7.20;73.50;;;;;;2268165;59;21109;-74
2022/04/09 08:25:39;;;;;;;4.50;2.50;;;7.20;73.60;;;;;;2267850;59;21124;-73
2022/04/09 08:28:07;;;;;;;6.10;2.60;;;7.30;74.30;;;;;;2267911;59;21098;-73
2022/04/09 08:30:36;;;;;;;8.90;2.67;;;7.40;74.40;;;;;;2268386;59;21101;-73
2022/04/09 08:33:05;;;;;;;6.47;2.47;;;7.40;75.20;;;;;;2267794;59;21054;-73
2022/04/09 08:35:33;;;;;;;6.25;2.42;;;7.50;75.50;;;;;;2267864;59;21042;-73
2022/04/09 08:38:01;;;;;;;6.82;2.45;;;7.50;75.50;;;;;;2268009;59;21089;-73
2022/04/09 08:40:28;;;;;;;9.57;2.50;;;7.60;76.40;;;;;;2340828;55;21058;-73
2022/04/09 08:42:56;;;;;;;7.12;2.17;;;7.70;76.30;;;;;;2268047;59;21042;-73
2022/04/09 08:45:24;;;;;;;12.50;2.22;;;7.80;75.70;;;;;;2267782;59;21129;-73
2022/04/09 08:47:51;;;;;;;6.87;1.98;;;7.80;75.10;;;;;;2268396;59;21138;-73
2022/04/09 08:50:20;;;;;;;4.72;2.30;;;7.90;74.70;;;;;;2266898;59;21126;-73
2022/04/09 08:52:47;;;;;;;6.55;2.17;;;8.00;73.90;;;;;;2267334;59;21034;-73
2022/04/09 08:55:14;;;;;;;7.45;2.17;;;8.10;73.90;;;;;;2267671;59;21082;-73
2022/04/09 08:57:43;;;;;;;11.65;2.50;;;8.00;73.60;;;;;;2268088;59;21109;-74
2022/04/09 09:00:13;;;;;;;10.02;2.37;;;8.00;73.30;;;;;;2268330;59;21592;-73
2022/04/09 09:02:50;;;;;;;8.55;2.30;;;7.90;73.80;;;;;;2268525;59;21046;-74
2022/04/09 09:05:30;;;;;;;6.82;2.40;;;7.90;73.80;;;;;;2268069;59;21050;-73
2022/04/09 09:07:58;;;;;;;5.05;2.70;;;8.00;73.80;;;;;;2266298;57;21037;-73
2022/04/09 09:10:25;;;;;;;9.00;2.37;;;8.00;74.50;;;;;;2267442;59;21042;-74
2022/04/09 09:13:01;;;;;;;9.35;2.30;;;8.10;74.50;;;;;;2266924;59;21181;-73
2022/04/09 09:15:29;;;;;;;6.85;2.20;;;8.20;74.20;;;;;;2267003;59;21058;-73
2022/04/09 09:17:57;;;;;;;15.73;3.15;;;8.30;74.50;;;;;;2267101;59;21046;-74
2022/04/09 09:20:25;;;;;;;4.70;2.08;;;8.40;75.10;;;;;;2267321;59;21193;-74
2022/04/09 09:22:54;;;;;;;8.02;2.40;;;8.40;75.30;;;;;;2267104;59;21066;-73
2022/04/09 09:25:21;;;;;;;5.62;2.15;;;8.50;75.80;;;;;;2266608;59;21046;-74
2022/04/09 09:27:57;;;;;;;13.93;2.15;;;8.50;75.70;;;;;;2266956;59;21229;-73
2022/04/09 09:30:24;;;;;;;11.30;2.25;;;8.60;75.90;;;;;;2267085;59;21142;-73
2022/04/09 09:33:08;;;;;;;8.32;2.25;;;8.70;76.30;;;;;;2267071;59;21051;-73
2022/04/09 09:35:48;;;;;;;;;;;8.70;75.70;;;;;;2270274;59;21046;-73
2022/04/09 09:38:23;;;;;;;8.30;2.03;;;8.80;74.80;;;;;;2267451;59;20093;-71
2022/04/09 09:40:51;;;;;;;9.93;2.35;;;8.80;72.90;;;;;;2267325;59;21113;-73
2022/04/09 09:43:20;;;;;;;12.35;2.53;;;8.80;73.70;;;;;;2267265;59;21201;-73
2022/04/09 09:45:48;;;;;;;7.32;1.60;;;8.90;72.70;;;;;;2264809;59;21213;-73
2022/04/09 09:48:24;;;;;;;9.15;2.30;;;8.80;72.80;;;;;;2266776;59;21205;-73
2022/04/09 09:50:53;;;;;;;7.93;1.75;;;8.80;73.30;;;;;;2266388;59;21046;-73
2022/04/09 09:53:31;;;;;;;9.98;2.40;;;8.80;72.80;;;;;;2266442;59;21110;-73
2022/04/09 09:55:59;;;;;;;9.23;2.22;;;8.80;72.10;;;;;;2265945;59;21065;-73
2022/04/09 09:58:27;;;;;;;9.13;1.77;;;8.70;72.70;;;;;;2266853;59;21114;-73
2022/04/09 10:00:56;;;;;;;9.93;2.42;;;8.70;72.40;;;;;;2266038;59;21142;-74
2022/04/09 10:03:24;;;;;;;3.10;1.45;;;8.60;72.80;;;;;;2265991;59;21098;-72
2022/04/09 10:05:53;;;;;;;8.65;1.87;;;8.60;71.70;;;;;;2265994;59;21600;-72
2022/04/09 10:08:21;;;;;;;5.15;2.00;;;8.50;71.40;;;;;;2266728;59;21027;-74
2022/04/09 10:10:51;;;;;;;6.80;1.85;;;8.50;71.70;;;;;;2266687;59;21038;-73
2022/04/09 10:13:21;;;;;;;6.15;1.90;;;8.50;72.10;;;;;;2266211;59;21128;-74
2022/04/09 10:15:51;;;;;;;5.50;1.87;;;8.50;72.40;;;;;;2264208;59;21106;-76
2022/04/09 10:18:25;;;;;;;10.82;2.72;;;8.60;72.70;;;;;;2290282;55;21058;-74
2022/04/09 10:20:59;;;;;;;7.12;1.65;;;8.60;71.80;;;;;;2265938;59;21125;-74
2022/04/09 10:23:32;;;;;;;7.70;1.70;;;8.60;71.50;;;;;;2264755;59;21205;-75
2022/04/09 10:26:00;;;;;;;8.15;1.90;;;8.60;70.90;;;;;;2264979;59;21098;-74
2022/04/09 10:28:32;;;;;;;8.23;1.60;;;8.70;71.80;;;;;;2260948;59;21038;-75
2022/04/09 10:30:59;;;;;;;6.55;1.80;;;8.70;71.40;;;;;;2263400;59;21041;-74
2022/04/09 10:33:28;;;;;;;5.82;1.50;;;8.80;72.00;;;;;;2264927;59;21115;-74
2022/04/09 10:36:02;;;;;;;7.07;1.98;;;8.90;71.30;;;;;;2298881;55;21022;-74
2022/04/09 10:38:29;;;;;;;14.30;1.15;;;8.90;69.10;;;;;;2262800;59;21109;-74
2022/04/09 10:41:37;;;;;;;7.62;1.50;;;8.80;67.80;;;;;;2264888;59;21066;-74
2022/04/09 10:44:05;;;;;;;6.80;1.35;;;8.80;67.80;;;;;;2403934;55;21030;-74
2022/04/09 10:46:36;;;;;;;7.53;2.00;;;8.70;67.80;;;;;;2263186;59;21252;-74
2022/04/09 10:49:28;;;;;;;6.28;1.30;;;8.60;68.10;;;;;;2266039;59;21212;-72
2022/04/09 10:52:16;;;;;;;5.78;1.40;;;8.60;68.20;;;;;;2263793;59;21030;-72
2022/04/09 10:55:32;;;;;;;11.23;2.83;;;8.60;68.90;;;;;;2264698;59;21050;-75
2022/04/09 10:58:09;;;;;;;6.28;1.77;;;8.70;68.90;;;;;;2265223;55;21100;-73
2022/04/09 11:00:43;;;;;;;5.20;1.58;;;8.70;69.70;;;;;;2264295;59;21050;-73
2022/04/09 11:03:31;;;;;;;5.78;1.37;;;8.80;69.30;;;;;;2264187;59;21050;-74
2022/04/09 11:06:40;;;;;;;5.45;1.45;;;8.90;69.50;;;;;;2263808;59;21066;-74
2022/04/09 11:09:08;;;;;;;3.10;1.52;;;9.10;69.10;;;;;;2264059;59;21050;-74
2022/04/09 11:11:37;;;;;;;5.45;1.30;;;9.20;69.80;;;;;;2261077;59;21735;-74
2022/04/09 11:14:04;;;;;;;8.63;1.92;;;9.40;70.20;;;;;;2326163;55;21058;-74
2022/04/09 11:19:11;;;;;;;2.08;1.27;;;9.70;69.70;;;;;;2352002;57;22101;-73
2022/04/09 11:21:38;;;;;;;6.85;1.58;;;9.90;68.20;;;;;;2342787;57;21132;-74
2022/04/09 11:24:08;;;;;;;8.65;1.95;;;10.00;68.20;;;;;;2342442;57;21041;-74
2022/04/09 11:26:36;;;;;;;6.45;1.87;;;10.10;68.50;;;;;;2362688;56;21015;-74
2022/04/09 11:29:12;;;;;;;5.07;1.80;;;10.00;67.60;;;;;;2372422;56;21063;-74
2022/04/09 11:31:46;;;;;;;6.43;1.50;;;10.10;67.00;;;;;;2371846;56;21146;-74
2022/04/09 11:34:14;;;;;;;7.75;1.70;;;10.10;67.50;;;;;;2373159;56;21926;-78
2022/04/09 11:36:41;;;;;;;6.55;1.30;;;10.10;67.80;;;;;;2373829;56;21572;-78
2022/04/09 11:39:08;;;;;;;7.40;1.33;;;10.10;65.70;;;;;;2372924;56;21545;-75
2022/04/09 11:41:35;;;;;;;5.70;2.05;;;10.20;65.80;;;;;;2372979;56;21035;-76
2022/04/09 11:44:03;;;;;;;6.28;1.58;;;10.20;64.30;;;;;;2373562;56;21102;-75
2022/04/09 11:46:43;;;;;;;3.85;1.40;;;10.30;64.30;;;;;;2373568;56;21118;-77
2022/04/09 11:49:11;;;;;;;4.12;1.27;;;10.30;63.50;;;;;;2374076;56;22512;-77
2022/04/09 11:51:38;;;;;;;3.95;1.17;;;10.40;62.20;;;;;;2374085;56;21098;-75
2022/04/09 11:54:15;;;;;;;3.08;1.20;;;10.40;61.00;;;;;;2373826;56;21098;-74
2022/04/09 11:56:43;;;;;;;7.62;1.70;;;10.30;60.80;;;;;;2372728;56;21019;-75
2022/04/09 11:59:12;;;;;;;5.57;1.95;;;10.20;62.40;;;;;;2374062;56;21550;-76
2022/04/09 12:01:44;;;;;;;3.40;1.62;;;10.00;63.20;;;;;;2372691;56;21193;-75
2022/04/09 12:04:11;;;;;;;8.05;1.52;;;9.90;64.30;;;;;;2440663;52;21106;-75
2022/04/09 12:06:39;;;;;;;12.40;2.05;;;9.80;65.00;;;;;;2391298;52;21098;-74
2022/04/09 12:09:07;;;;;;;6.85;2.12;;;9.80;65.90;;;;;;2373419;56;21059;-75
2022/04/09 12:11:34;;;;;;;6.07;1.33;;;9.80;66.20;;;;;;2374562;56;21117;-75
2022/04/09 12:14:10;;;;;;;5.87;1.60;;;9.80;66.30;;;;;;2373288;56;21055;-74
2022/04/09 12:16:40;;;;;;;7.57;2.03;;;9.80;65.50;;;;;;2373372;56;21121;-74
2022/04/09 12:19:08;;;;;;;7.85;1.80;;;9.80;63.90;;;;;;2373156;56;21055;-74
2022/04/09 12:21:36;;;;;;;10.68;2.20;;;9.80;63.30;;;;;;2371300;56;21043;-74
2022/04/09 12:24:05;;;;;;;17.20;2.90;;;9.80;62.70;;;;;;2430453;52;21147;-74
2022/04/09 12:26:34;;;;;;;7.18;2.03;;;9.80;62.20;;;;;;2374191;56;21039;-74
2022/04/09 12:31:51;;;;;;;10.77;2.28;;;9.90;59.40;;;;;;2325962;57;22095;-72
2022/04/09 12:34:19;;;;;;;8.00;2.10;;;9.90;58.90;;;;;;2318495;58;21108;-71
2022/04/09 12:37:04;;;;;;;12.37;2.15;;;10.00;58.70;;;;;;2338812;57;21072;-72
2022/04/09 12:39:33;;;;;;;21.95;3.03;;;10.00;58.40;;;;;;2346871;57;21117;-72
2022/04/09 12:42:01;;;;;;;8.60;2.20;;;10.00;57.20;;;;;;2345816;57;21048;-73
2022/04/09 12:44:30;;;;;;;6.65;1.60;;;9.90;57.90;;;;;;2345555;57;21137;-73
2022/04/09 12:46:57;;;;;;;11.40;2.70;;;9.90;59.70;;;;;;2346292;57;21058;-72
2022/04/09 12:49:28;;;;;;;10.25;1.85;;;10.00;60.40;;;;;;2346846;57;21109;-72
2022/04/09 12:51:55;;;;;;;9.63;2.05;;;10.10;60.30;;;;;;2347313;57;21121;-72
2022/04/09 12:57:06;;;;;;;13.73;2.53;;;10.20;60.80;;;;;;2312587;57;27957;-74
2022/04/09 12:59:34;;;;;;;16.27;2.90;;;10.30;58.80;;;;;;2346941;57;21058;-73
2022/04/09 13:02:02;;;;;;;11.68;3.03;;;10.30;57.60;;;;;;2380051;53;21117;-74
2022/04/09 13:04:30;;;;;;;11.25;2.90;;;10.30;58.20;;;;;;2346252;57;21124;-72
2022/04/09 13:06:57;;;;;;;15.15;2.28;;;10.30;58.20;;;;;;2346222;57;21049;-73
2022/04/09 13:09:24;;;;;;;13.82;3.05;;;10.20;57.70;;;;;;2347171;57;21112;-73
2022/04/09 13:11:52;;;;;;;10.82;2.53;;;10.20;57.10;;;;;;2347665;57;21666;-73
2022/04/09 13:14:20;;;;;;;15.90;4.22;;;10.10;56.20;;;;;;2347296;57;21132;-73
2022/04/09 13:16:48;;;;;;;13.07;2.70;;;10.00;56.70;;;;;;2346602;57;21053;-73
2022/04/09 13:19:15;;;;;;;21.75;2.90;;;9.90;56.80;;;;;;2378009;53;21057;-73
2022/04/09 13:21:42;;;;;;;10.40;2.47;;;9.90;56.60;;;;;;2350209;53;21658;-72
2022/04/09 13:24:10;;;;;;;12.73;2.45;;;9.90;57.20;;;;;;2347147;57;21121;-74
2022/04/09 13:26:38;;;;;;;9.30;2.42;;;9.90;57.40;;;;;;2346914;57;21556;-74